createdAt,value
2017-07-16T00:00:08.838Z,16.29
2017-07-16T00:00:21.257Z,16.22
2017-07-16T00:00:34.742Z,16.26
2017-07-16T00:00:48.167Z,16.25
2017-07-16T00:01:01.144Z,16.21
2017-07-16T00:01:13.502Z,16.26
2017-07-16T00:01:26.409Z,16.32
2017-07-16T00:01:39.361Z,16.27
2017-07-16T00:01:52.335Z,16.22
2017-07-16T00:02:05.757Z,16.25
2017-07-16T00:02:18.653Z,16.16
2017-07-16T00:02:31.590Z,16.22
2017-07-16T00:02:44.544Z,16.22
2017-07-16T00:02:57.986Z,16.21
2017-07-16T00:03:10.914Z,16.17
2017-07-16T00:03:23.302Z,16.22
2017-07-16T00:03:36.268Z,16.25
2017-07-16T00:03:49.192Z,16.16
2017-07-16T00:04:02.649Z,16.14
2017-07-16T00:04:15.550Z,16.17
2017-07-16T00:04:29.102Z,16.21
2017-07-16T00:04:41.978Z,16.13
2017-07-16T00:04:55.469Z,16.17
2017-07-16T00:05:08.058Z,16.21
2017-07-16T00:05:21.013Z,16.17
2017-07-16T00:05:33.472Z,16.18
2017-07-16T00:05:45.906Z,16.22
2017-07-16T00:05:59.419Z,16.1
2017-07-16T00:06:11.763Z,16.11
2017-07-16T00:06:25.197Z,16.21
2017-07-16T00:06:38.082Z,16.1
2017-07-16T00:06:51.073Z,16.11
2017-07-16T00:07:03.992Z,16.1
2017-07-16T00:07:17.475Z,16.04
2017-07-16T00:07:30.943Z,16.07
2017-07-16T00:07:44.363Z,16.02
2017-07-16T00:07:57.284Z,16
2017-07-16T00:08:10.191Z,16.13
2017-07-16T00:08:22.636Z,16.11
2017-07-16T00:08:36.093Z,16.13
2017-07-16T00:08:49.022Z,16.06
2017-07-16T00:09:02.479Z,16.1
2017-07-16T00:09:15.428Z,16.07
2017-07-16T00:09:28.983Z,16.1
2017-07-16T00:09:42.451Z,16.17
2017-07-16T00:09:55.883Z,16.1
2017-07-16T00:10:08.352Z,16.11
2017-07-16T00:10:21.858Z,16.22
2017-07-16T00:10:34.797Z,16.17
2017-07-16T00:10:48.271Z,16.22
2017-07-16T00:11:01.198Z,16.16
2017-07-16T00:11:13.628Z,16.21
2017-07-16T00:11:26.545Z,16.18
2017-07-16T00:11:39.969Z,16.14
2017-07-16T00:11:53.466Z,16.14
2017-07-16T00:12:06.899Z,16.17
2017-07-16T00:12:20.387Z,16.17
2017-07-16T00:12:33.349Z,16.14
2017-07-16T00:12:46.320Z,16.17
2017-07-16T00:12:59.311Z,16.14
2017-07-16T00:13:12.256Z,16.13
2017-07-16T00:13:25.703Z,16.17
2017-07-16T00:13:38.161Z,16.16
2017-07-16T00:13:51.086Z,16.13
2017-07-16T00:14:04.524Z,16.21
2017-07-16T00:14:17.423Z,16.16
2017-07-16T00:14:29.798Z,16.17
2017-07-16T00:14:43.380Z,16.21
2017-07-16T00:14:56.883Z,16.18
2017-07-16T00:15:10.503Z,16.1
2017-07-16T00:15:23.484Z,16.16
2017-07-16T00:15:36.474Z,16.1
2017-07-16T00:15:49.957Z,16.04
2017-07-16T00:16:02.862Z,15.99
2017-07-16T00:16:15.263Z,16.08
2017-07-16T00:16:27.641Z,16.06
2017-07-16T00:16:41.073Z,16.02
2017-07-16T00:16:54.521Z,16.06
2017-07-16T00:17:08.028Z,16.04
2017-07-16T00:17:20.911Z,16.06
2017-07-16T00:17:34.392Z,16.07
2017-07-16T00:17:47.349Z,16.1
2017-07-16T00:18:00.340Z,16.04
2017-07-16T00:18:12.752Z,16.04
2017-07-16T00:18:25.158Z,16.1
2017-07-16T00:18:38.649Z,16
2017-07-16T00:18:51.551Z,16
2017-07-16T00:19:05.004Z,16.02
2017-07-16T00:19:18.448Z,15.98
2017-07-16T00:19:31.961Z,15.99
2017-07-16T00:19:44.933Z,15.93
2017-07-16T00:19:57.332Z,16.02
2017-07-16T00:20:10.795Z,16
2017-07-16T00:20:24.264Z,15.95
2017-07-16T00:20:37.153Z,16
2017-07-16T00:20:50.069Z,15.89
2017-07-16T00:21:03.056Z,15.92
2017-07-16T00:21:16.552Z,16.06
2017-07-16T00:21:29.481Z,15.99
2017-07-16T00:21:42.981Z,15.96
2017-07-16T00:21:55.861Z,15.98
2017-07-16T00:22:08.801Z,16
2017-07-16T00:22:21.738Z,15.96
2017-07-16T00:22:34.687Z,15.99
2017-07-16T00:22:46.034Z,15.98
2017-07-16T00:22:58.979Z,16
2017-07-16T00:23:11.947Z,16.04
2017-07-16T00:23:22.796Z,16.04
2017-07-16T00:23:35.183Z,16.1
2017-07-16T00:23:47.098Z,16.06
2017-07-16T00:24:00.571Z,16.04
2017-07-16T00:24:13.517Z,15.99
2017-07-16T00:24:26.407Z,16.1
2017-07-16T00:24:39.952Z,16.07
2017-07-16T00:24:53.439Z,16.07
2017-07-16T00:25:07.041Z,16.02
2017-07-16T00:25:20.468Z,16
2017-07-16T00:25:33.405Z,16.04
2017-07-16T00:25:46.378Z,16.07
2017-07-16T00:25:59.291Z,16.06
2017-07-16T00:26:12.240Z,16
2017-07-16T00:26:24.705Z,16.08
2017-07-16T00:26:38.124Z,16.02
2017-07-16T00:26:51.149Z,16.02
2017-07-16T00:27:04.021Z,16
2017-07-16T00:27:16.951Z,16.02
2017-07-16T00:27:29.866Z,16.02
2017-07-16T00:27:42.902Z,16
2017-07-16T00:27:55.889Z,15.95
2017-07-16T00:28:08.318Z,15.89
2017-07-16T00:28:20.199Z,15.92
2017-07-16T00:28:33.680Z,15.91
2017-07-16T00:28:46.638Z,15.96
2017-07-16T00:28:59.528Z,15.86
2017-07-16T00:29:12.957Z,16
2017-07-16T00:29:26.461Z,15.98
2017-07-16T00:29:38.354Z,16.02
2017-07-16T00:29:51.243Z,16.02
2017-07-16T00:30:04.173Z,15.92
2017-07-16T00:30:18.478Z,16.04
2017-07-16T00:30:31.382Z,15.98
2017-07-16T00:30:44.318Z,15.99
2017-07-16T00:30:57.272Z,15.92
2017-07-16T00:31:09.104Z,16
2017-07-16T00:31:22.580Z,15.95
2017-07-16T00:31:36.054Z,15.88
2017-07-16T00:31:49.530Z,15.93
2017-07-16T00:32:02.983Z,15.89
2017-07-16T00:32:16.464Z,15.84
2017-07-16T00:32:28.841Z,15.8
2017-07-16T00:32:42.308Z,15.86
2017-07-16T00:32:55.192Z,15.81
2017-07-16T00:33:08.649Z,15.8
2017-07-16T00:33:21.562Z,15.77
2017-07-16T00:33:35.061Z,15.83
2017-07-16T00:33:48.511Z,15.81
2017-07-16T00:34:02.001Z,15.84
2017-07-16T00:34:14.918Z,15.7
2017-07-16T00:34:28.422Z,15.81
2017-07-16T00:34:41.326Z,15.83
2017-07-16T00:34:54.832Z,15.73
2017-07-16T00:35:08.290Z,15.77
2017-07-16T00:35:21.202Z,15.86
2017-07-16T00:35:34.616Z,15.75
2017-07-16T00:35:48.091Z,15.68
2017-07-16T00:36:01.006Z,15.7
2017-07-16T00:36:14.473Z,15.68
2017-07-16T00:36:27.427Z,15.74
2017-07-16T00:36:40.824Z,15.71
2017-07-16T00:36:54.297Z,15.67
2017-07-16T00:37:07.782Z,15.63
2017-07-16T00:37:20.723Z,15.6
2017-07-16T00:37:34.121Z,15.71
2017-07-16T00:37:47.607Z,15.73
2017-07-16T00:38:01.023Z,15.86
2017-07-16T00:38:13.886Z,15.86
2017-07-16T00:38:27.347Z,15.7
2017-07-16T00:38:40.313Z,15.68
2017-07-16T00:38:53.772Z,15.74
2017-07-16T00:39:06.688Z,15.8
2017-07-16T00:39:19.625Z,15.8
2017-07-16T00:39:33.045Z,15.78
2017-07-16T00:39:46.511Z,15.8
2017-07-16T00:39:59.442Z,15.91
2017-07-16T00:40:12.368Z,15.88
2017-07-16T00:40:25.812Z,15.86
2017-07-16T00:40:39.208Z,15.95
2017-07-16T00:40:52.111Z,15.86
2017-07-16T00:41:07.062Z,16.07
2017-07-16T00:41:19.461Z,16
2017-07-16T00:41:32.949Z,16.06
2017-07-16T00:41:45.369Z,16.14
2017-07-16T00:41:58.876Z,16.17
2017-07-16T00:42:12.337Z,16.21
2017-07-16T00:42:25.794Z,16.17
2017-07-16T00:42:38.690Z,16.29
2017-07-16T00:42:52.145Z,16.39
2017-07-16T00:43:05.099Z,16.37
2017-07-16T00:43:16.966Z,16.45
2017-07-16T00:43:30.155Z,16.47
2017-07-16T00:43:42.026Z,16.47
2017-07-16T00:43:55.491Z,16.52
2017-07-16T00:44:08.990Z,16.63
2017-07-16T00:44:21.912Z,16.63
2017-07-16T00:44:34.861Z,16.57
2017-07-16T00:44:48.300Z,16.55
2017-07-16T00:45:01.800Z,16.69
2017-07-16T00:45:16.177Z,16.7
2017-07-16T00:45:29.079Z,16.63
2017-07-16T00:45:41.987Z,16.67
2017-07-16T00:45:54.866Z,16.69
2017-07-16T00:46:07.801Z,16.63
2017-07-16T00:46:21.302Z,16.65
2017-07-16T00:46:34.821Z,16.72
2017-07-16T00:46:47.138Z,16.59
2017-07-16T00:47:00.624Z,16.63
2017-07-16T00:47:14.134Z,16.66
2017-07-16T00:47:26.488Z,16.59
2017-07-16T00:47:40.066Z,16.54
2017-07-16T00:47:53.564Z,16.57
2017-07-16T00:48:06.489Z,16.57
2017-07-16T00:48:19.377Z,16.55
2017-07-16T00:48:32.332Z,16.51
2017-07-16T00:48:45.270Z,16.52
2017-07-16T00:48:58.184Z,16.49
2017-07-16T00:49:11.617Z,16.48
2017-07-16T00:49:24.524Z,16.47
2017-07-16T00:49:37.417Z,16.45
2017-07-16T00:49:50.898Z,16.51
2017-07-16T00:50:04.362Z,16.44
2017-07-16T00:50:17.818Z,16.44
2017-07-16T00:50:31.268Z,16.45
2017-07-16T00:50:43.635Z,16.37
2017-07-16T00:50:57.108Z,16.34
2017-07-16T00:51:10.006Z,16.32
2017-07-16T00:51:21.857Z,16.3
2017-07-16T00:51:34.269Z,16.27
2017-07-16T00:51:47.713Z,16.3
2017-07-16T00:52:00.088Z,16.29
2017-07-16T00:52:11.962Z,16.36
2017-07-16T00:52:24.964Z,16.32
2017-07-16T00:52:38.387Z,16.34
2017-07-16T00:52:51.342Z,16.34
2017-07-16T00:53:04.293Z,16.33
2017-07-16T00:53:17.830Z,16.34
2017-07-16T00:53:31.316Z,16.32
2017-07-16T00:53:44.796Z,16.32
2017-07-16T00:53:58.250Z,16.36
2017-07-16T00:54:11.723Z,16.33
2017-07-16T00:54:25.391Z,16.33
2017-07-16T00:54:37.757Z,16.29
2017-07-16T00:54:51.237Z,16.34
2017-07-16T00:55:04.187Z,16.3
2017-07-16T00:55:17.134Z,16.44
2017-07-16T00:55:30.124Z,16.37
2017-07-16T00:55:43.589Z,16.45
2017-07-16T00:55:56.015Z,16.45
2017-07-16T00:56:09.427Z,16.47
2017-07-16T00:56:22.356Z,16.45
2017-07-16T00:56:35.794Z,16.54
2017-07-16T00:56:48.732Z,16.59
2017-07-16T00:57:02.223Z,16.65
2017-07-16T00:57:15.702Z,16.63
2017-07-16T00:57:28.681Z,16.52
2017-07-16T00:57:41.053Z,16.62
2017-07-16T00:57:53.996Z,16.58
2017-07-16T00:58:07.552Z,16.59
2017-07-16T00:58:20.459Z,16.72
2017-07-16T00:58:33.892Z,16.67
2017-07-16T00:58:47.388Z,16.67
2017-07-16T00:58:59.803Z,16.65
2017-07-16T00:59:13.310Z,16.69
2017-07-16T00:59:26.842Z,16.81
2017-07-16T00:59:40.362Z,16.73
2017-07-16T00:59:53.754Z,16.63
2017-07-16T01:00:07.265Z,16.76
2017-07-16T01:00:20.737Z,16.7
2017-07-16T01:00:34.921Z,16.7
2017-07-16T01:00:48.391Z,16.67
2017-07-16T01:01:01.375Z,16.7
2017-07-16T01:01:14.293Z,16.69
2017-07-16T01:01:27.205Z,16.69
2017-07-16T01:01:40.698Z,16.73
2017-07-16T01:01:54.239Z,16.7
2017-07-16T01:02:07.112Z,16.76
2017-07-16T01:02:19.497Z,16.69
2017-07-16T01:02:32.983Z,16.65
2017-07-16T01:02:46.413Z,16.55
2017-07-16T01:02:59.331Z,16.59
2017-07-16T01:03:12.309Z,16.59
2017-07-16T01:03:25.759Z,16.63
2017-07-16T01:03:39.246Z,16.59
2017-07-16T01:03:52.823Z,16.51
2017-07-16T01:04:05.804Z,16.54
2017-07-16T01:04:18.801Z,16.55
2017-07-16T01:04:31.687Z,16.42
2017-07-16T01:04:45.067Z,16.47
2017-07-16T01:04:58.023Z,16.47
2017-07-16T01:05:10.916Z,16.39
2017-07-16T01:05:24.432Z,16.4
2017-07-16T01:05:37.879Z,16.42
2017-07-16T01:05:50.764Z,16.4
2017-07-16T01:06:04.285Z,16.39
2017-07-16T01:06:17.736Z,16.29
2017-07-16T01:06:30.715Z,16.33
2017-07-16T01:06:43.635Z,16.29
2017-07-16T01:06:57.117Z,16.3
2017-07-16T01:07:09.984Z,16.29
2017-07-16T01:07:23.462Z,16.22
2017-07-16T01:07:36.380Z,16.17
2017-07-16T01:07:49.935Z,16.17
2017-07-16T01:08:03.338Z,16.25
2017-07-16T01:08:15.683Z,16.13
2017-07-16T01:08:29.172Z,16.11
2017-07-16T01:08:42.066Z,16.13
2017-07-16T01:08:55.541Z,16.07
2017-07-16T01:09:07.394Z,16.07
2017-07-16T01:09:20.821Z,16.04
2017-07-16T01:09:33.221Z,16.06
2017-07-16T01:09:46.692Z,16.06
2017-07-16T01:10:00.148Z,16
2017-07-16T01:10:12.528Z,16.1
2017-07-16T01:10:25.439Z,15.96
2017-07-16T01:10:37.837Z,16.06
2017-07-16T01:10:51.275Z,16.02
2017-07-16T01:11:04.762Z,16.07
2017-07-16T01:11:18.271Z,16.1
2017-07-16T01:11:31.199Z,16.02
2017-07-16T01:11:43.646Z,16.02
2017-07-16T01:11:57.065Z,16.08
2017-07-16T01:12:09.471Z,16.06
2017-07-16T01:12:21.878Z,16.18
2017-07-16T01:12:34.805Z,16.14
2017-07-16T01:12:48.354Z,16.1
2017-07-16T01:13:01.251Z,16.11
2017-07-16T01:13:14.200Z,16.1
2017-07-16T01:13:27.613Z,16.14
2017-07-16T01:13:41.078Z,16.14
2017-07-16T01:13:54.024Z,16
2017-07-16T01:14:06.967Z,16.02
2017-07-16T01:14:19.902Z,16.14
2017-07-16T01:14:32.849Z,16.1
2017-07-16T01:14:45.833Z,16.06
2017-07-16T01:14:59.287Z,16.02
2017-07-16T01:15:12.169Z,16.11
2017-07-16T01:15:25.582Z,16.06
2017-07-16T01:15:39.509Z,16
2017-07-16T01:15:52.953Z,16.07
2017-07-16T01:16:06.446Z,16
2017-07-16T01:16:19.377Z,16.06
2017-07-16T01:16:31.791Z,16.04
2017-07-16T01:16:45.210Z,16.04
2017-07-16T01:16:58.661Z,16.08
2017-07-16T01:17:11.612Z,16
2017-07-16T01:17:25.059Z,16.06
2017-07-16T01:17:38.499Z,16.08
2017-07-16T01:17:51.461Z,15.99
2017-07-16T01:18:03.811Z,15.96
2017-07-16T01:18:16.800Z,16
2017-07-16T01:18:30.277Z,15.93
2017-07-16T01:18:43.767Z,15.95
2017-07-16T01:18:56.143Z,15.86
2017-07-16T01:19:09.001Z,15.96
2017-07-16T01:19:21.949Z,15.89
2017-07-16T01:19:34.338Z,15.89
2017-07-16T01:19:47.212Z,15.84
2017-07-16T01:19:58.486Z,15.84
2017-07-16T01:20:11.391Z,15.8
2017-07-16T01:20:24.352Z,15.84
2017-07-16T01:20:37.279Z,15.83
2017-07-16T01:20:50.226Z,15.77
2017-07-16T01:21:03.143Z,15.81
2017-07-16T01:21:15.029Z,15.8
2017-07-16T01:21:28.501Z,15.75
2017-07-16T01:21:42.002Z,15.71
2017-07-16T01:21:55.399Z,15.71
2017-07-16T01:22:07.785Z,15.78
2017-07-16T01:22:20.184Z,15.71
2017-07-16T01:22:33.134Z,15.75
2017-07-16T01:22:46.054Z,15.74
2017-07-16T01:22:58.433Z,15.73
2017-07-16T01:23:11.831Z,15.67
2017-07-16T01:23:23.183Z,15.56
2017-07-16T01:23:35.081Z,15.59
2017-07-16T01:23:46.424Z,15.63
2017-07-16T01:23:59.894Z,15.63
2017-07-16T01:24:12.810Z,15.62
2017-07-16T01:24:26.213Z,15.58
2017-07-16T01:24:39.727Z,15.52
2017-07-16T01:24:53.137Z,15.45
2017-07-16T01:25:06.062Z,15.47
2017-07-16T01:25:19.476Z,15.47
2017-07-16T01:25:32.912Z,15.41
2017-07-16T01:25:46.497Z,15.45
2017-07-16T01:26:00.173Z,15.44
2017-07-16T01:26:12.017Z,15.4
2017-07-16T01:26:23.869Z,15.43
2017-07-16T01:26:37.302Z,15.47
2017-07-16T01:26:50.792Z,15.41
2017-07-16T01:27:04.291Z,15.45
2017-07-16T01:27:17.268Z,15.41
2017-07-16T01:27:30.722Z,15.38
2017-07-16T01:27:43.598Z,15.51
2017-07-16T01:27:56.501Z,15.49
2017-07-16T01:28:08.361Z,15.49
2017-07-16T01:28:21.753Z,15.51
2017-07-16T01:28:35.189Z,15.56
2017-07-16T01:28:48.663Z,15.56
2017-07-16T01:29:01.003Z,15.59
2017-07-16T01:29:14.479Z,15.59
2017-07-16T01:29:27.395Z,15.6
2017-07-16T01:29:40.369Z,15.63
2017-07-16T01:29:53.824Z,15.56
2017-07-16T01:30:07.296Z,15.59
2017-07-16T01:30:20.192Z,15.59
2017-07-16T01:30:33.726Z,15.58
2017-07-16T01:30:46.651Z,15.7
2017-07-16T01:30:58.503Z,15.68
2017-07-16T01:31:11.952Z,15.59
2017-07-16T01:31:24.882Z,15.71
2017-07-16T01:31:37.830Z,15.7
2017-07-16T01:31:51.250Z,15.71
2017-07-16T01:32:04.742Z,15.68
2017-07-16T01:32:18.206Z,15.59
2017-07-16T01:32:31.657Z,15.7
2017-07-16T01:32:45.109Z,15.68
2017-07-16T01:32:58.053Z,15.56
2017-07-16T01:33:11.467Z,15.58
2017-07-16T01:33:24.390Z,15.59
2017-07-16T01:33:37.894Z,15.6
2017-07-16T01:33:50.851Z,15.59
2017-07-16T01:34:04.289Z,15.63
2017-07-16T01:34:16.172Z,15.52
2017-07-16T01:34:29.122Z,15.53
2017-07-16T01:34:42.110Z,15.52
2017-07-16T01:34:55.047Z,15.53
2017-07-16T01:35:06.894Z,15.45
2017-07-16T01:35:19.844Z,15.43
2017-07-16T01:35:33.290Z,15.4
2017-07-16T01:35:46.443Z,15.4
2017-07-16T01:35:59.362Z,15.47
2017-07-16T01:36:11.794Z,15.41
2017-07-16T01:36:25.249Z,15.3
2017-07-16T01:36:38.726Z,15.4
2017-07-16T01:36:52.120Z,15.33
2017-07-16T01:37:05.667Z,15.34
2017-07-16T01:37:19.170Z,15.31
2017-07-16T01:37:32.163Z,15.22
2017-07-16T01:37:45.035Z,15.23
2017-07-16T01:37:58.510Z,15.25
2017-07-16T01:38:11.481Z,15.16
2017-07-16T01:38:24.900Z,15.13
2017-07-16T01:38:36.211Z,15.13
2017-07-16T01:38:49.686Z,15.12
2017-07-16T01:39:03.196Z,15.16
2017-07-16T01:39:15.586Z,15.1
2017-07-16T01:39:29.057Z,15.04
2017-07-16T01:39:42.541Z,15.05
2017-07-16T01:39:54.418Z,15.1
2017-07-16T01:40:06.350Z,15.05
2017-07-16T01:40:19.292Z,15.1
2017-07-16T01:40:32.676Z,14.98
2017-07-16T01:40:45.621Z,14.97
2017-07-16T01:40:59.079Z,15.02
2017-07-16T01:41:12.009Z,14.95
2017-07-16T01:41:25.448Z,14.98
2017-07-16T01:41:37.860Z,14.89
2017-07-16T01:41:50.753Z,14.89
2017-07-16T01:42:04.192Z,14.98
2017-07-16T01:42:17.117Z,14.97
2017-07-16T01:42:30.045Z,14.93
2017-07-16T01:42:43.504Z,14.85
2017-07-16T01:42:55.351Z,14.97
2017-07-16T01:43:08.843Z,14.95
2017-07-16T01:43:22.372Z,14.93
2017-07-16T01:43:35.290Z,14.94
2017-07-16T01:43:48.737Z,15
2017-07-16T01:44:01.619Z,14.86
2017-07-16T01:44:14.530Z,14.98
2017-07-16T01:44:27.407Z,14.98
2017-07-16T01:44:40.376Z,15.04
2017-07-16T01:44:52.800Z,15.05
2017-07-16T01:45:05.731Z,15.08
2017-07-16T01:45:19.151Z,15.15
2017-07-16T01:45:32.588Z,15.07
2017-07-16T01:45:46.065Z,15.1
2017-07-16T01:45:59.579Z,15.1
2017-07-16T01:46:13.092Z,15.22
2017-07-16T01:46:25.990Z,15.18
2017-07-16T01:46:38.877Z,15.3
2017-07-16T01:46:52.345Z,15.27
2017-07-16T01:47:05.248Z,15.31
2017-07-16T01:47:17.656Z,15.23
2017-07-16T01:47:30.088Z,15.37
2017-07-16T01:47:42.481Z,15.38
2017-07-16T01:47:55.388Z,15.37
2017-07-16T01:48:07.850Z,15.34
2017-07-16T01:48:21.260Z,15.34
2017-07-16T01:48:34.195Z,15.3
2017-07-16T01:48:47.152Z,15.31
2017-07-16T01:48:59.533Z,15.34
2017-07-16T01:49:13.020Z,15.25
2017-07-16T01:49:25.417Z,15.25
2017-07-16T01:49:38.349Z,15.27
2017-07-16T01:49:50.734Z,15.27
2017-07-16T01:50:04.208Z,15.23
2017-07-16T01:50:17.672Z,15.18
2017-07-16T01:50:30.614Z,15.18
2017-07-16T01:50:44.135Z,15.13
2017-07-16T01:50:57.100Z,15.15
2017-07-16T01:51:10.018Z,15.08
2017-07-16T01:51:22.443Z,15
2017-07-16T01:51:35.418Z,14.97
2017-07-16T01:51:48.879Z,15.01
2017-07-16T01:52:02.360Z,14.98
2017-07-16T01:52:15.312Z,15
2017-07-16T01:52:28.232Z,14.89
2017-07-16T01:52:40.572Z,14.94
2017-07-16T01:52:53.530Z,14.82
2017-07-16T01:53:06.450Z,14.83
2017-07-16T01:53:19.338Z,14.85
2017-07-16T01:53:32.834Z,14.71
2017-07-16T01:53:45.232Z,14.85
2017-07-16T01:53:58.166Z,14.82
2017-07-16T01:54:11.650Z,14.85
2017-07-16T01:54:25.102Z,14.86
2017-07-16T01:54:38.039Z,14.74
2017-07-16T01:54:51.528Z,14.7
2017-07-16T01:55:04.501Z,14.67
2017-07-16T01:55:17.986Z,14.69
2017-07-16T01:55:30.915Z,14.75
2017-07-16T01:55:43.856Z,14.71
2017-07-16T01:55:56.848Z,14.6
2017-07-16T01:56:10.305Z,14.7
2017-07-16T01:56:23.767Z,14.59
2017-07-16T01:56:36.654Z,14.59
2017-07-16T01:56:50.124Z,14.59
2017-07-16T01:57:03.628Z,14.6
2017-07-16T01:57:16.608Z,14.51
2017-07-16T01:57:30.108Z,14.53
2017-07-16T01:57:42.463Z,14.53
2017-07-16T01:57:54.856Z,14.49
2017-07-16T01:58:08.308Z,14.48
2017-07-16T01:58:21.257Z,14.46
2017-07-16T01:58:34.797Z,14.51
2017-07-16T01:58:47.646Z,14.45
2017-07-16T01:59:00.662Z,14.48
2017-07-16T01:59:12.483Z,14.48
2017-07-16T01:59:25.891Z,14.48
2017-07-16T01:59:38.902Z,14.46
2017-07-16T01:59:52.272Z,14.57
2017-07-16T02:00:05.684Z,14.56
2017-07-16T02:00:19.119Z,14.51
2017-07-16T02:00:32.009Z,14.48
2017-07-16T02:00:44.948Z,14.63
2017-07-16T02:00:59.352Z,14.67
2017-07-16T02:01:11.677Z,14.64
2017-07-16T02:01:24.623Z,14.61
2017-07-16T02:01:38.055Z,14.66
2017-07-16T02:01:50.989Z,14.74
2017-07-16T02:02:04.458Z,14.63
2017-07-16T02:02:17.335Z,14.71
2017-07-16T02:02:30.771Z,14.74
2017-07-16T02:02:43.153Z,14.87
2017-07-16T02:02:55.524Z,14.79
2017-07-16T02:03:08.509Z,14.79
2017-07-16T02:03:21.964Z,14.83
2017-07-16T02:03:35.466Z,14.82
2017-07-16T02:03:48.379Z,14.85
2017-07-16T02:04:01.871Z,14.89
2017-07-16T02:04:15.364Z,14.82
2017-07-16T02:04:28.870Z,14.89
2017-07-16T02:04:42.294Z,14.85
2017-07-16T02:04:55.193Z,14.87
2017-07-16T02:05:08.147Z,14.94
2017-07-16T02:05:20.545Z,14.9
2017-07-16T02:05:32.357Z,14.82
2017-07-16T02:05:45.245Z,14.9
2017-07-16T02:05:57.841Z,14.86
2017-07-16T02:06:10.786Z,14.9
2017-07-16T02:06:23.231Z,14.82
2017-07-16T02:06:36.670Z,14.95
2017-07-16T02:06:49.568Z,14.8
2017-07-16T02:07:02.497Z,14.79
2017-07-16T02:07:15.912Z,14.79
2017-07-16T02:07:29.346Z,14.74
2017-07-16T02:07:42.812Z,14.8
2017-07-16T02:07:56.255Z,14.83
2017-07-16T02:08:09.742Z,14.69
2017-07-16T02:08:23.223Z,14.71
2017-07-16T02:08:36.239Z,14.7
2017-07-16T02:08:49.213Z,14.77
2017-07-16T02:09:02.631Z,14.61
2017-07-16T02:09:16.050Z,14.71
2017-07-16T02:09:28.983Z,14.7
2017-07-16T02:09:42.388Z,14.61
2017-07-16T02:09:54.793Z,14.59
2017-07-16T02:10:06.670Z,14.63
2017-07-16T02:10:19.571Z,14.61
2017-07-16T02:10:32.965Z,14.6
2017-07-16T02:10:46.399Z,14.57
2017-07-16T02:10:59.528Z,14.49
2017-07-16T02:11:13.008Z,14.59
2017-07-16T02:11:25.877Z,14.46
2017-07-16T02:11:39.263Z,14.56
2017-07-16T02:11:52.188Z,14.42
2017-07-16T02:12:05.122Z,14.46
2017-07-16T02:12:18.565Z,14.46
2017-07-16T02:12:31.539Z,14.45
2017-07-16T02:12:45.047Z,14.48
2017-07-16T02:12:57.977Z,14.39
2017-07-16T02:13:11.458Z,14.48
2017-07-16T02:13:23.930Z,14.48
2017-07-16T02:13:37.383Z,14.38
2017-07-16T02:13:50.839Z,14.42
2017-07-16T02:14:04.262Z,14.44
2017-07-16T02:14:17.725Z,14.34
2017-07-16T02:14:30.650Z,14.36
2017-07-16T02:14:42.998Z,14.44
2017-07-16T02:14:56.517Z,14.42
2017-07-16T02:15:08.930Z,14.39
2017-07-16T02:15:22.430Z,14.42
2017-07-16T02:15:35.361Z,14.41
2017-07-16T02:15:48.295Z,14.41
2017-07-16T02:16:02.733Z,14.36
2017-07-16T02:16:15.631Z,14.38
2017-07-16T02:16:28.559Z,14.41
2017-07-16T02:16:41.557Z,14.39
2017-07-16T02:16:55.016Z,14.41
2017-07-16T02:17:08.525Z,14.41
2017-07-16T02:17:21.468Z,14.38
2017-07-16T02:17:34.984Z,14.3
2017-07-16T02:17:48.512Z,14.34
2017-07-16T02:18:01.987Z,14.39
2017-07-16T02:18:14.910Z,14.3
2017-07-16T02:18:28.394Z,14.38
2017-07-16T02:18:41.852Z,14.34
2017-07-16T02:18:55.293Z,14.28
2017-07-16T02:19:08.224Z,14.26
2017-07-16T02:19:21.154Z,14.23
2017-07-16T02:19:34.078Z,14.2
2017-07-16T02:19:47.582Z,14.16
2017-07-16T02:20:01.085Z,14.15
2017-07-16T02:20:14.541Z,14.16
2017-07-16T02:20:27.462Z,14.19
2017-07-16T02:20:39.861Z,14.13
2017-07-16T02:20:52.783Z,14.11
2017-07-16T02:21:05.725Z,14.09
2017-07-16T02:21:18.649Z,14.11
2017-07-16T02:21:31.544Z,14.05
2017-07-16T02:21:45.011Z,14.06
2017-07-16T02:21:58.519Z,14.02
2017-07-16T02:22:11.469Z,14.03
2017-07-16T02:22:24.463Z,13.94
2017-07-16T02:22:36.846Z,13.95
2017-07-16T02:22:48.122Z,13.93
2017-07-16T02:23:00.497Z,14.01
2017-07-16T02:23:13.366Z,14.02
2017-07-16T02:23:25.231Z,13.95
2017-07-16T02:23:37.608Z,14.01
2017-07-16T02:23:50.004Z,13.91
2017-07-16T02:24:02.399Z,13.94
2017-07-16T02:24:14.826Z,14.05
2017-07-16T02:24:27.786Z,13.95
2017-07-16T02:24:41.267Z,14.02
2017-07-16T02:24:54.185Z,13.97
2017-07-16T02:25:07.066Z,14.03
2017-07-16T02:25:20.437Z,13.93
2017-07-16T02:25:33.400Z,13.99
2017-07-16T02:25:46.319Z,13.91
2017-07-16T02:25:59.836Z,13.94
2017-07-16T02:26:13.398Z,13.99
2017-07-16T02:26:26.878Z,14.01
2017-07-16T02:26:39.805Z,13.99
2017-07-16T02:26:52.202Z,14.03
2017-07-16T02:27:04.067Z,13.99
2017-07-16T02:27:17.042Z,13.93
2017-07-16T02:27:30.538Z,13.95
2017-07-16T02:27:44.068Z,13.99
2017-07-16T02:27:56.968Z,13.97
2017-07-16T02:28:09.909Z,13.94
2017-07-16T02:28:23.445Z,14.01
2017-07-16T02:28:36.899Z,13.93
2017-07-16T02:28:50.359Z,14.01
2017-07-16T02:29:03.280Z,13.97
2017-07-16T02:29:16.782Z,13.88
2017-07-16T02:29:30.270Z,13.93
2017-07-16T02:29:43.249Z,13.97
2017-07-16T02:29:56.187Z,13.9
2017-07-16T02:30:08.524Z,13.91
2017-07-16T02:30:20.939Z,14.02
2017-07-16T02:30:33.852Z,14.08
2017-07-16T02:30:46.798Z,13.99
2017-07-16T02:31:00.273Z,14.03
2017-07-16T02:31:13.181Z,14.03
2017-07-16T02:31:25.049Z,14.02
2017-07-16T02:31:37.476Z,13.95
2017-07-16T02:31:51.007Z,13.99
2017-07-16T02:32:04.414Z,13.97
2017-07-16T02:32:17.908Z,13.95
2017-07-16T02:32:30.834Z,14.02
2017-07-16T02:32:44.309Z,14.03
2017-07-16T02:32:56.125Z,13.99
2017-07-16T02:33:09.033Z,14.05
2017-07-16T02:33:21.400Z,13.95
2017-07-16T02:33:34.891Z,13.99
2017-07-16T02:33:47.305Z,13.91
2017-07-16T02:34:00.223Z,13.97
2017-07-16T02:34:12.643Z,13.93
2017-07-16T02:34:25.551Z,13.97
2017-07-16T02:34:38.452Z,13.93
2017-07-16T02:34:51.381Z,14.02
2017-07-16T02:35:04.274Z,13.94
2017-07-16T02:35:17.710Z,14.05
2017-07-16T02:35:30.108Z,14.06
2017-07-16T02:35:43.070Z,14.02
2017-07-16T02:35:55.476Z,14.02
2017-07-16T02:36:08.863Z,14.05
2017-07-16T02:36:21.281Z,14.03
2017-07-16T02:36:34.197Z,13.97
2017-07-16T02:36:46.642Z,14.01
2017-07-16T02:36:58.473Z,14.03
2017-07-16T02:37:11.341Z,14.09
2017-07-16T02:37:24.273Z,14.06
2017-07-16T02:37:37.231Z,14.12
2017-07-16T02:37:49.585Z,14.08
2017-07-16T02:38:02.473Z,14.15
2017-07-16T02:38:14.293Z,14.16
2017-07-16T02:38:27.737Z,14.2
2017-07-16T02:38:40.635Z,14.23
2017-07-16T02:38:52.532Z,14.24
2017-07-16T02:39:06.092Z,14.27
2017-07-16T02:39:19.077Z,14.27
2017-07-16T02:39:32.498Z,14.31
2017-07-16T02:39:44.886Z,14.31
2017-07-16T02:39:58.397Z,14.27
2017-07-16T02:40:11.319Z,14.39
2017-07-16T02:40:23.680Z,14.33
2017-07-16T02:40:35.581Z,14.44
2017-07-16T02:40:48.480Z,14.41
2017-07-16T02:41:01.944Z,14.44
2017-07-16T02:41:15.616Z,14.46
2017-07-16T02:41:28.492Z,14.48
2017-07-16T02:41:40.416Z,14.49
2017-07-16T02:41:52.867Z,14.46
2017-07-16T02:42:06.280Z,14.48
2017-07-16T02:42:19.198Z,14.53
2017-07-16T02:42:32.137Z,14.51
2017-07-16T02:42:45.577Z,14.53
2017-07-16T02:42:58.555Z,14.53
2017-07-16T02:43:10.936Z,14.56
2017-07-16T02:43:23.884Z,14.51
2017-07-16T02:43:37.273Z,14.51
2017-07-16T02:43:50.179Z,14.63
2017-07-16T02:44:03.666Z,14.61
2017-07-16T02:44:15.502Z,14.6
2017-07-16T02:44:27.889Z,14.6
2017-07-16T02:44:41.375Z,14.61
2017-07-16T02:44:53.760Z,14.64
2017-07-16T02:45:07.267Z,14.67
2017-07-16T02:45:20.672Z,14.69
2017-07-16T02:45:32.551Z,14.71
2017-07-16T02:45:44.974Z,14.77
2017-07-16T02:45:58.415Z,14.69
2017-07-16T02:46:11.545Z,14.82
2017-07-16T02:46:24.986Z,14.8
2017-07-16T02:46:37.399Z,14.9
2017-07-16T02:46:50.890Z,14.95
2017-07-16T02:47:04.281Z,14.93
2017-07-16T02:47:17.814Z,14.94
2017-07-16T02:47:30.180Z,15.01
2017-07-16T02:47:42.517Z,15.02
2017-07-16T02:47:55.973Z,15.01
2017-07-16T02:48:09.460Z,15.18
2017-07-16T02:48:22.407Z,15.13
2017-07-16T02:48:35.323Z,15.2
2017-07-16T02:48:48.750Z,15.18
2017-07-16T02:49:02.172Z,15.19